createdAt,value
2018-12-31T00:00:19.344Z,5.33
2018-12-31T00:02:48.405Z,5.67
2018-12-31T00:05:17.460Z,5.53
2018-12-31T00:07:46.528Z,5.28
2018-12-31T00:10:15.582Z,5.15
2018-12-31T00:12:44.614Z,5.17
2018-12-31T00:15:13.688Z,5.00
2018-12-31T00:17:42.735Z,4.97
2018-12-31T00:20:11.787Z,5.08
2018-12-31T00:22:40.897Z,4.53
2018-12-31T00:25:09.942Z,4.85
2018-12-31T00:27:39.267Z,4.90
2018-12-31T00:30:08.334Z,5.40
2018-12-31T00:32:37.374Z,4.67
2018-12-31T00:35:06.433Z,5.30
2018-12-31T00:37:35.483Z,5.15
2018-12-31T00:40:05.358Z,5.80
2018-12-31T00:42:34.390Z,4.85
2018-12-31T00:45:03.591Z,5.05
2018-12-31T00:47:32.655Z,4.65
2018-12-31T00:50:01.690Z,4.30
2018-12-31T00:52:30.727Z,4.40
2018-12-31T00:54:59.772Z,4.53
2018-12-31T00:57:28.917Z,4.37
2018-12-31T00:59:57.965Z,5.12
2018-12-31T01:02:27.030Z,4.87
2018-12-31T01:04:56.289Z,4.97
2018-12-31T01:07:25.335Z,4.80
2018-12-31T01:09:54.411Z,4.90
2018-12-31T01:12:23.462Z,4.85
2018-12-31T01:14:52.511Z,5.22
2018-12-31T01:17:21.567Z,4.85
2018-12-31T01:19:50.609Z,4.97
2018-12-31T01:22:19.661Z,5.45
2018-12-31T01:24:48.843Z,5.10
2018-12-31T01:27:17.893Z,5.25
2018-12-31T01:29:46.967Z,4.90
2018-12-31T01:32:16.035Z,4.72
2018-12-31T01:34:45.153Z,5.20
2018-12-31T01:37:14.231Z,5.08
2018-12-31T01:39:43.269Z,4.75
2018-12-31T01:42:12.337Z,5.12
2018-12-31T01:44:41.367Z,5.00
2018-12-31T01:47:10.433Z,5.22
2018-12-31T01:49:39.493Z,4.92
2018-12-31T01:52:08.546Z,5.50
2018-12-31T01:54:37.602Z,6.10
2018-12-31T01:57:06.675Z,5.20
2018-12-31T01:59:35.711Z,5.28
2018-12-31T02:02:04.786Z,5.28
2018-12-31T02:04:33.823Z,4.72
2018-12-31T02:07:02.867Z,4.87
2018-12-31T02:09:31.892Z,4.72
2018-12-31T02:12:00.928Z,4.70
2018-12-31T02:14:29.990Z,5.20
2018-12-31T02:16:59.111Z,5.10
2018-12-31T02:19:28.139Z,5.15
2018-12-31T02:21:57.205Z,4.90
2018-12-31T02:24:26.221Z,4.45
2018-12-31T02:26:55.259Z,4.67
2018-12-31T02:29:24.311Z,5.62
2018-12-31T02:31:53.360Z,5.35
2018-12-31T02:34:22.421Z,5.55
2018-12-31T02:36:51.458Z,5.05
2018-12-31T02:39:20.521Z,5.25
2018-12-31T02:41:49.569Z,4.85
2018-12-31T02:44:18.615Z,4.58
2018-12-31T02:46:47.671Z,5.87
2018-12-31T02:49:16.767Z,5.28
2018-12-31T02:51:45.815Z,5.42
2018-12-31T02:54:14.883Z,5.30
2018-12-31T02:56:43.921Z,5.58
2018-12-31T02:59:12.982Z,6.42
2018-12-31T03:01:42.052Z,5.90
2018-12-31T03:04:11.124Z,5.25
2018-12-31T03:06:40.142Z,5.40
2018-12-31T03:09:09.214Z,5.75
2018-12-31T03:11:38.263Z,5.33
2018-12-31T03:14:07.315Z,5.22
2018-12-31T03:16:36.376Z,5.58
2018-12-31T03:19:05.464Z,5.12
2018-12-31T03:21:34.603Z,5.45
2018-12-31T03:24:03.669Z,5.53
2018-12-31T03:26:32.719Z,4.78
2018-12-31T03:29:01.778Z,5.00
2018-12-31T03:31:30.818Z,4.72
2018-12-31T03:33:59.853Z,4.45
2018-12-31T03:36:28.901Z,4.75
2018-12-31T03:38:57.985Z,4.40
2018-12-31T03:41:27.031Z,5.05
2018-12-31T03:43:56.084Z,4.42
2018-12-31T03:46:25.177Z,4.00
2018-12-31T03:48:54.277Z,4.58
2018-12-31T03:51:23.398Z,4.78
2018-12-31T03:53:52.471Z,4.53
2018-12-31T03:56:21.502Z,4.83
2018-12-31T03:58:50.542Z,4.72
2018-12-31T04:01:19.579Z,4.58
2018-12-31T04:03:48.609Z,4.65
2018-12-31T04:06:17.668Z,5.15
2018-12-31T04:08:46.704Z,4.67
2018-12-31T04:11:15.746Z,5.15
2018-12-31T04:13:44.804Z,4.62
2018-12-31T04:16:13.923Z,4.70
2018-12-31T04:18:42.967Z,4.67
2018-12-31T04:21:11.996Z,4.60
2018-12-31T04:23:41.049Z,4.62
2018-12-31T04:26:10.121Z,4.70
2018-12-31T04:28:39.172Z,4.62
2018-12-31T04:31:08.238Z,4.62
2018-12-31T04:33:37.269Z,3.75
2018-12-31T04:36:06.328Z,3.98
2018-12-31T04:38:35.345Z,4.22
2018-12-31T04:41:04.409Z,4.40
2018-12-31T04:43:33.448Z,4.58
2018-12-31T04:46:02.486Z,4.40
2018-12-31T04:48:31.536Z,5.47
2018-12-31T04:51:00.580Z,5.08
2018-12-31T04:53:29.632Z,5.22
2018-12-31T04:55:58.688Z,7.90
2018-12-31T04:58:29.273Z,7.60
2018-12-31T05:00:58.496Z,5.50
2018-12-31T05:03:27.532Z,4.92
2018-12-31T05:05:56.560Z,4.17
2018-12-31T05:08:25.618Z,4.40
2018-12-31T05:10:54.696Z,4.60
2018-12-31T05:13:23.802Z,4.62
2018-12-31T05:15:52.917Z,4.20
2018-12-31T05:18:21.936Z,4.08
2018-12-31T05:20:50.979Z,4.40
2018-12-31T05:23:20.010Z,4.22
2018-12-31T05:25:49.143Z,4.45
2018-12-31T05:28:18.177Z,4.08
2018-12-31T05:30:47.264Z,4.20
2018-12-31T05:33:16.390Z,4.97
2018-12-31T05:35:45.425Z,4.72
2018-12-31T05:38:14.474Z,4.53
2018-12-31T05:40:43.538Z,4.30
2018-12-31T05:43:12.650Z,4.53
2018-12-31T05:45:41.728Z,4.22
2018-12-31T05:48:10.792Z,4.10
2018-12-31T05:50:39.857Z,4.78
2018-12-31T05:53:08.878Z,4.87
2018-12-31T05:55:37.902Z,4.87
2018-12-31T05:58:06.950Z,4.65
2018-12-31T06:00:36.609Z,4.67
2018-12-31T06:03:05.680Z,4.83
2018-12-31T06:05:34.718Z,5.10
2018-12-31T06:08:03.782Z,5.05
2018-12-31T06:10:32.879Z,5.45
2018-12-31T06:13:02.386Z,5.40
2018-12-31T06:15:31.421Z,5.28
2018-12-31T06:18:00.479Z,5.25
2018-12-31T06:20:29.510Z,5.78
2018-12-31T06:22:58.575Z,6.22
2018-12-31T06:25:27.634Z,6.15
2018-12-31T06:27:56.685Z,6.15
2018-12-31T06:30:25.727Z,6.00
2018-12-31T06:32:54.788Z,6.78
2018-12-31T06:35:23.840Z,6.78
2018-12-31T06:37:52.945Z,6.42
2018-12-31T06:40:21.989Z,6.83
2018-12-31T06:42:51.071Z,6.97
2018-12-31T06:45:20.114Z,6.83
2018-12-31T06:47:49.159Z,6.90
2018-12-31T06:50:18.345Z,7.37
2018-12-31T06:52:47.390Z,7.25
2018-12-31T06:55:16.427Z,7.83
2018-12-31T06:57:45.491Z,6.80
2018-12-31T07:00:14.535Z,7.20
2018-12-31T07:02:43.591Z,8.00
2018-12-31T07:05:12.648Z,7.78
2018-12-31T07:07:41.721Z,8.33
2018-12-31T07:10:10.767Z,8.25
2018-12-31T07:12:39.841Z,8.13
2018-12-31T07:15:08.950Z,8.58
2018-12-31T07:17:38.010Z,8.43
2018-12-31T07:20:07.525Z,8.90
2018-12-31T07:22:36.591Z,9.60
2018-12-31T07:25:05.641Z,8.68
2018-12-31T07:27:34.738Z,8.95
2018-12-31T07:30:04.977Z,8.98
2018-12-31T07:32:34.057Z,8.50
2018-12-31T07:35:03.099Z,8.55
2018-12-31T07:37:32.161Z,9.75
2018-12-31T07:40:01.207Z,8.83
2018-12-31T07:42:30.267Z,8.43
2018-12-31T07:44:59.327Z,8.00
2018-12-31T07:47:28.361Z,8.25
2018-12-31T07:49:57.429Z,8.98
2018-12-31T07:52:26.479Z,9.40
2018-12-31T07:54:55.545Z,9.55
2018-12-31T07:57:24.593Z,9.55
2018-12-31T07:59:53.658Z,9.00
2018-12-31T08:02:22.703Z,8.43
2018-12-31T08:04:51.782Z,8.80
2018-12-31T08:07:20.831Z,9.28
2018-12-31T08:09:49.872Z,9.83
2018-12-31T08:12:18.964Z,9.13
2018-12-31T08:14:47.997Z,8.95
2018-12-31T08:17:17.104Z,8.83
2018-12-31T08:19:46.209Z,9.23
2018-12-31T08:22:15.318Z,8.83
2018-12-31T08:24:44.384Z,8.83
2018-12-31T08:27:13.419Z,8.88
2018-12-31T08:29:42.502Z,9.23
2018-12-31T08:32:11.554Z,9.53
2018-12-31T08:34:40.590Z,9.80
2018-12-31T08:37:09.644Z,9.58
2018-12-31T08:39:38.696Z,9.10
2018-12-31T08:42:07.787Z,10.03
2018-12-31T08:44:36.818Z,9.33
2018-12-31T08:47:05.888Z,9.45
2018-12-31T08:49:34.922Z,11.15
2018-12-31T08:52:04.062Z,9.90
2018-12-31T08:54:33.123Z,10.03
2018-12-31T08:57:02.177Z,10.05
2018-12-31T08:59:37.115Z,9.98
2018-12-31T09:02:06.173Z,10.23
2018-12-31T09:04:35.229Z,10.40
2018-12-31T09:07:04.271Z,9.38
2018-12-31T09:09:33.341Z,9.13
2018-12-31T09:12:02.385Z,10.00
2018-12-31T09:14:31.467Z,8.83
2018-12-31T09:17:00.527Z,9.85
2018-12-31T09:19:29.583Z,9.63
2018-12-31T09:21:58.637Z,9.50
2018-12-31T09:24:27.675Z,10.08
2018-12-31T09:26:56.729Z,8.85
2018-12-31T09:29:25.821Z,9.70
2018-12-31T09:31:54.893Z,10.23
2018-12-31T09:34:23.944Z,10.72
2018-12-31T09:36:53.026Z,11.00
2018-12-31T09:39:22.089Z,11.73
2018-12-31T09:41:51.158Z,10.85
2018-12-31T09:44:20.223Z,12.37
2018-12-31T09:46:49.351Z,11.65
2018-12-31T09:49:18.393Z,12.05
2018-12-31T09:51:47.451Z,14.10
2018-12-31T09:54:16.597Z,13.58
2018-12-31T09:56:45.706Z,12.88
2018-12-31T09:59:14.892Z,13.95
2018-12-31T10:01:44.003Z,13.32
2018-12-31T10:04:13.121Z,13.10
2018-12-31T10:06:42.218Z,12.90
2018-12-31T10:09:12.047Z,13.28
2018-12-31T10:11:41.213Z,13.15
2018-12-31T10:14:10.305Z,13.72
2018-12-31T10:16:39.446Z,13.83
2018-12-31T10:19:08.518Z,13.10
2018-12-31T10:21:41.160Z,14.38
2018-12-31T10:24:08.378Z,13.38
2018-12-31T10:26:37.515Z,14.00
2018-12-31T10:29:06.591Z,14.15
2018-12-31T10:31:35.688Z,13.65
2018-12-31T10:34:04.730Z,14.30
2018-12-31T10:36:33.793Z,13.62
2018-12-31T10:39:04.497Z,15.43
2018-12-31T10:41:33.544Z,15.23
2018-12-31T10:44:02.703Z,14.30
2018-12-31T10:46:31.764Z,14.20
2018-12-31T10:49:00.823Z,15.00
2018-12-31T10:51:29.946Z,14.87
2018-12-31T10:53:58.994Z,14.53
2018-12-31T10:56:28.137Z,14.13
2018-12-31T10:58:57.408Z,14.23
2018-12-31T11:01:26.466Z,13.75
2018-12-31T11:03:55.506Z,14.18
2018-12-31T11:06:24.570Z,14.63
2018-12-31T11:08:53.686Z,14.60
2018-12-31T11:11:22.976Z,14.13
2018-12-31T11:13:52.090Z,14.23
2018-12-31T11:16:21.152Z,13.75
2018-12-31T11:18:50.234Z,13.68
2018-12-31T11:21:19.367Z,13.25
2018-12-31T11:23:48.436Z,12.93
2018-12-31T11:26:17.489Z,12.30
2018-12-31T11:28:46.549Z,12.95
2018-12-31T11:31:15.625Z,13.05
2018-12-31T11:33:44.697Z,12.58
2018-12-31T11:36:13.740Z,13.35
2018-12-31T11:38:42.909Z,13.85
2018-12-31T11:41:11.958Z,13.58
2018-12-31T11:43:41.119Z,13.98
2018-12-31T11:46:10.157Z,13.43
2018-12-31T11:48:39.215Z,13.40
2018-12-31T11:51:08.297Z,14.98
2018-12-31T11:53:37.353Z,13.70
2018-12-31T11:56:06.421Z,12.78
2018-12-31T11:58:35.601Z,12.90
2018-12-31T12:01:04.654Z,13.28
2018-12-31T12:03:33.701Z,14.18
2018-12-31T12:06:02.770Z,14.28
2018-12-31T12:08:31.802Z,15.30
2018-12-31T12:11:00.883Z,14.73
2018-12-31T12:13:30.219Z,14.45
2018-12-31T12:15:59.258Z,13.70
2018-12-31T12:18:28.326Z,13.18
2018-12-31T12:20:57.390Z,15.35
2018-12-31T12:23:26.552Z,12.43
2018-12-31T12:25:56.005Z,13.00
2018-12-31T12:28:25.160Z,12.45
2018-12-31T12:30:54.391Z,11.48
2018-12-31T12:33:23.456Z,11.38
2018-12-31T12:35:52.511Z,11.08
2018-12-31T12:38:21.752Z,11.30
2018-12-31T12:40:50.797Z,12.50
2018-12-31T12:43:19.867Z,12.75
2018-12-31T12:45:48.919Z,13.25
2018-12-31T12:48:17.984Z,12.78
2018-12-31T12:50:47.035Z,12.13
2018-12-31T12:53:16.276Z,12.05
2018-12-31T12:55:45.335Z,11.53
2018-12-31T12:58:14.396Z,11.53
2018-12-31T13:00:43.547Z,12.93
2018-12-31T13:03:12.668Z,12.47
2018-12-31T13:05:41.763Z,12.88
2018-12-31T13:08:10.900Z,13.43
2018-12-31T13:10:40.041Z,12.90
2018-12-31T13:13:09.095Z,12.65
2018-12-31T13:15:38.167Z,13.15
2018-12-31T13:18:07.228Z,12.03
2018-12-31T13:20:36.308Z,12.20
2018-12-31T13:23:05.440Z,11.50
2018-12-31T13:25:34.508Z,13.08
2018-12-31T13:28:03.570Z,13.25
2018-12-31T13:30:33.358Z,11.68
2018-12-31T13:33:02.643Z,13.15
2018-12-31T13:35:31.717Z,12.80
2018-12-31T13:38:00.777Z,12.10
2018-12-31T13:40:29.895Z,13.72
2018-12-31T13:42:58.993Z,12.55
2018-12-31T13:45:28.077Z,12.65
2018-12-31T13:47:57.195Z,13.35
2018-12-31T13:50:26.255Z,13.20
2018-12-31T13:52:55.303Z,13.03
2018-12-31T13:55:24.374Z,12.90
2018-12-31T13:57:53.421Z,13.48
2018-12-31T14:00:22.508Z,13.08
2018-12-31T14:02:51.659Z,13.75
2018-12-31T14:05:20.787Z,14.15
2018-12-31T14:07:49.909Z,14.18
2018-12-31T14:10:20.805Z,14.40
2018-12-31T14:12:49.842Z,14.20
2018-12-31T14:15:19.288Z,14.07
2018-12-31T14:17:48.344Z,13.40
2018-12-31T14:20:17.410Z,13.48
2018-12-31T14:22:46.456Z,13.10
2018-12-31T14:25:15.520Z,13.50
2018-12-31T14:27:44.866Z,13.80
2018-12-31T14:30:13.946Z,13.50
2018-12-31T14:32:43.055Z,12.75
2018-12-31T14:35:12.126Z,12.58
2018-12-31T14:37:41.179Z,13.43
2018-12-31T14:40:10.510Z,13.00
2018-12-31T14:42:39.574Z,13.30
2018-12-31T14:45:08.636Z,12.05
2018-12-31T14:47:37.761Z,13.72
2018-12-31T14:50:07.344Z,13.18
2018-12-31T14:52:36.423Z,12.80
2018-12-31T14:55:05.681Z,14.80
2018-12-31T14:57:34.743Z,13.70
2018-12-31T15:00:05.711Z,12.98
2018-12-31T15:02:34.774Z,12.40
2018-12-31T15:05:04.345Z,12.75
2018-12-31T15:07:33.411Z,12.00
2018-12-31T15:10:02.461Z,10.93
2018-12-31T15:12:31.559Z,10.13
2018-12-31T15:15:00.631Z,12.25
2018-12-31T15:17:29.707Z,11.38
2018-12-31T15:19:58.755Z,11.08
2018-12-31T15:22:29.231Z,12.73
2018-12-31T15:24:58.557Z,12.33
2018-12-31T15:27:27.623Z,10.68
2018-12-31T15:29:56.740Z,14.70
2018-12-31T15:32:25.789Z,30.32
2018-12-31T15:34:54.835Z,23.62
2018-12-31T15:37:23.908Z,19.48
2018-12-31T15:39:52.949Z,11.18
2018-12-31T15:42:22.009Z,10.10
2018-12-31T15:44:51.056Z,9.25
2018-12-31T15:47:20.121Z,9.98
2018-12-31T15:49:49.185Z,9.10
2018-12-31T15:52:18.247Z,9.68
2018-12-31T15:54:47.279Z,11.05
2018-12-31T15:57:16.362Z,10.48
2018-12-31T15:59:45.406Z,11.95
2018-12-31T16:02:14.478Z,13.98
2018-12-31T16:04:43.520Z,14.73
2018-12-31T16:07:12.580Z,14.00
2018-12-31T16:09:41.666Z,14.73
2018-12-31T16:12:10.740Z,18.77
2018-12-31T16:14:39.860Z,13.93
2018-12-31T16:17:08.935Z,14.38
2018-12-31T16:19:37.989Z,13.45
2018-12-31T16:22:07.042Z,12.88
2018-12-31T16:24:36.085Z,11.83
2018-12-31T16:27:05.174Z,18.00
2018-12-31T16:29:34.246Z,13.35
2018-12-31T16:32:03.369Z,19.15
2018-12-31T16:34:32.517Z,19.10
2018-12-31T16:37:01.632Z,26.60
2018-12-31T16:39:30.692Z,22.37
2018-12-31T16:41:59.736Z,27.40
2018-12-31T16:44:28.847Z,70.42
2018-12-31T16:46:57.961Z,28.83
2018-12-31T16:49:27.020Z,21.42
2018-12-31T16:52:02.510Z,17.95
2018-12-31T16:54:26.898Z,18.20
2018-12-31T16:56:56.005Z,16.73
2018-12-31T16:59:25.078Z,17.37
2018-12-31T17:01:54.151Z,18.55
2018-12-31T17:04:23.223Z,16.40
2018-12-31T17:06:52.258Z,17.25
2018-12-31T17:09:21.336Z,17.25
2018-12-31T17:11:50.460Z,16.12
2018-12-31T17:14:19.529Z,16.75
2018-12-31T17:16:48.581Z,18.07
2018-12-31T17:19:17.714Z,25.23
2018-12-31T17:21:46.845Z,19.75
2018-12-31T17:24:15.923Z,20.97
2018-12-31T17:26:45.037Z,24.43
2018-12-31T17:29:14.097Z,26.93
2018-12-31T17:31:43.220Z,25.62
2018-12-31T17:34:12.572Z,25.10
2018-12-31T17:36:41.643Z,25.15
2018-12-31T17:39:10.717Z,26.35
2018-12-31T17:41:39.771Z,26.02
2018-12-31T17:44:08.933Z,23.30
2018-12-31T17:46:38.453Z,22.25
2018-12-31T17:49:07.520Z,26.82
2018-12-31T17:51:36.561Z,23.25
2018-12-31T17:54:05.604Z,21.77
2018-12-31T17:56:34.688Z,23.18
2018-12-31T17:59:04.107Z,23.10
2018-12-31T18:01:33.189Z,24.67
2018-12-31T18:04:02.254Z,24.23
2018-12-31T18:06:31.316Z,23.40
2018-12-31T18:09:00.346Z,21.40
2018-12-31T18:11:29.782Z,22.75
2018-12-31T18:13:58.842Z,24.25
2018-12-31T18:16:27.902Z,25.60
2018-12-31T18:18:56.956Z,27.20
2018-12-31T18:21:26.034Z,43.05
2018-12-31T18:23:55.416Z,28.42
2018-12-31T18:26:24.514Z,25.65
2018-12-31T18:28:53.584Z,28.05
2018-12-31T18:31:22.618Z,32.63
2018-12-31T18:33:51.691Z,26.40
2018-12-31T18:36:21.112Z,20.35
2018-12-31T18:38:50.183Z,20.52
2018-12-31T18:41:19.228Z,22.48
2018-12-31T18:43:48.313Z,22.40
2018-12-31T18:46:17.367Z,23.30
2018-12-31T18:48:47.077Z,23.07
2018-12-31T18:51:16.138Z,25.30
2018-12-31T18:53:45.183Z,23.00
2018-12-31T18:56:14.257Z,20.35
2018-12-31T18:58:43.312Z,19.62
2018-12-31T19:01:12.755Z,72.47
2018-12-31T19:03:41.802Z,26.45
2018-12-31T19:06:10.871Z,62.85
2018-12-31T19:08:39.933Z,48.65
2018-12-31T19:11:08.987Z,35.50
2018-12-31T19:13:38.400Z,50.30
2018-12-31T19:16:07.501Z,27.60
2018-12-31T19:18:36.614Z,28.65
2018-12-31T19:21:05.690Z,26.70
2018-12-31T19:23:34.731Z,28.92
2018-12-31T19:26:03.807Z,27.70
2018-12-31T19:28:32.860Z,29.95
2018-12-31T19:31:01.935Z,26.37
2018-12-31T19:33:31.065Z,30.75
2018-12-31T19:36:00.117Z,33.58
2018-12-31T19:38:29.181Z,35.15
2018-12-31T19:40:58.213Z,34.38
2018-12-31T19:43:27.287Z,31.80
2018-12-31T19:45:56.334Z,28.25
2018-12-31T19:48:25.403Z,25.92
2018-12-31T19:50:54.514Z,34.20
2018-12-31T19:53:23.564Z,34.30
2018-12-31T19:55:52.600Z,30.92
2018-12-31T19:58:21.748Z,25.68
2018-12-31T20:00:50.780Z,25.77
2018-12-31T20:03:19.867Z,26.55
2018-12-31T20:05:48.982Z,29.82
2018-12-31T20:08:18.065Z,27.77
2018-12-31T20:10:47.173Z,31.50
2018-12-31T20:13:16.227Z,30.75
2018-12-31T20:15:48.694Z,27.93
2018-12-31T20:18:16.106Z,26.82
2018-12-31T20:20:45.153Z,24.32
2018-12-31T20:23:14.242Z,24.92
2018-12-31T20:25:43.446Z,25.32
2018-12-31T20:28:12.572Z,40.92
2018-12-31T20:30:41.912Z,28.50
2018-12-31T20:33:11.001Z,29.57
2018-12-31T20:35:40.047Z,48.68
2018-12-31T20:38:09.192Z,54.77
2018-12-31T20:40:38.249Z,48.48
2018-12-31T20:43:07.316Z,40.73
2018-12-31T20:45:36.433Z,51.28
2018-12-31T20:48:05.557Z,58.30
2018-12-31T20:50:34.691Z,42.15
2018-12-31T20:53:03.948Z,40.98
2018-12-31T20:55:33.000Z,44.35
2018-12-31T20:58:02.575Z,48.25
2018-12-31T21:00:31.633Z,44.13
2018-12-31T21:03:00.716Z,42.27
2018-12-31T21:05:29.797Z,31.37
2018-12-31T21:07:58.871Z,75.17
2018-12-31T21:10:28.315Z,49.60
2018-12-31T21:12:57.401Z,39.67
2018-12-31T21:15:26.462Z,36.23
2018-12-31T21:17:55.533Z,30.40
2018-12-31T21:20:24.665Z,37.03
2018-12-31T21:22:53.713Z,29.27
2018-12-31T21:25:22.791Z,27.42
2018-12-31T21:27:51.841Z,27.45
2018-12-31T21:30:20.897Z,30.05
2018-12-31T21:32:49.956Z,45.17
2018-12-31T21:35:19.091Z,43.30
2018-12-31T21:37:48.127Z,41.35
2018-12-31T21:40:17.209Z,41.53
2018-12-31T21:42:46.241Z,31.68
2018-12-31T21:45:15.295Z,31.95
2018-12-31T21:47:44.347Z,40.33
2018-12-31T21:50:13.687Z,43.05
2018-12-31T21:52:42.720Z,50.12
2018-12-31T21:55:11.797Z,54.45
2018-12-31T21:57:40.851Z,56.13
2018-12-31T22:00:10.077Z,37.28
2018-12-31T22:02:39.609Z,47.00
2018-12-31T22:05:08.728Z,50.83
2018-12-31T22:07:37.790Z,37.75
2018-12-31T22:10:06.931Z,54.98
2018-12-31T22:12:35.996Z,39.38
2018-12-31T22:15:07.322Z,29.00
2018-12-31T22:17:36.367Z,28.95
2018-12-31T22:20:08.067Z,24.75
2018-12-31T22:22:37.113Z,30.57
2018-12-31T22:25:06.610Z,26.65
2018-12-31T22:27:36.131Z,35.75
2018-12-31T22:30:06.347Z,28.47
2018-12-31T22:32:35.407Z,25.25
2018-12-31T22:35:04.613Z,26.68
2018-12-31T22:37:33.677Z,26.20
2018-12-31T22:40:03.814Z,31.52
2018-12-31T22:42:32.936Z,43.60
2018-12-31T22:45:02.067Z,22.35
2018-12-31T22:47:31.136Z,27.70
2018-12-31T22:50:00.258Z,39.75
2018-12-31T22:52:29.696Z,32.65
2018-12-31T22:54:58.818Z,22.87
2018-12-31T22:57:27.908Z,24.60
2018-12-31T22:59:56.970Z,25.65
2018-12-31T23:02:26.025Z,55.28
2018-12-31T23:04:55.387Z,62.90
2018-12-31T23:07:24.476Z,165.57
2018-12-31T23:09:53.632Z,190.80
2018-12-31T23:12:24.182Z,196.57
2018-12-31T23:14:53.272Z,379.00
2018-12-31T23:17:22.637Z,329.30
2018-12-31T23:19:51.728Z,397.15
2018-12-31T23:22:20.807Z,250.07
2018-12-31T23:24:49.879Z,307.60
2018-12-31T23:27:19.071Z,292.92
2018-12-31T23:29:48.626Z,220.88
2018-12-31T23:32:17.776Z,191.37
2018-12-31T23:34:46.867Z,150.68
2018-12-31T23:37:15.983Z,165.20
2018-12-31T23:39:45.059Z,145.12
2018-12-31T23:42:14.607Z,129.80
2018-12-31T23:44:43.662Z,83.00
2018-12-31T23:47:12.730Z,88.52
2018-12-31T23:49:41.813Z,72.78
2018-12-31T23:52:10.876Z,82.78
2018-12-31T23:54:40.296Z,88.22
2018-12-31T23:57:09.360Z,87.45
2018-12-31T23:59:38.447Z,74.92
